Time;durP1;ratioP1;P1;durP2;ratioP2;P2;SDS_P1;SDS_P2;PMS_P1;PMS_P2;Temp;Humidity;BMP_temperature;BMP_pressure;BME280_temperature;BME280_humidity;BME280_pressure;Samples;Min_cycle;Max_cycle;Signal;HPM_P1;HPM_P2
2023/01/15 00:01:28;;;;;;;;;;;10.00;99.60;;;;;;5021444;28;20038;-77
2023/01/15 00:03:56;;;;;;;;;;;10.00;99.60;;;;;;5024889;28;19948;-81
2023/01/15 00:06:23;;;;;;;;;;;10.00;99.60;;;;;;5025780;28;19928;-79
2023/01/15 00:08:51;;;;;;;;;;;10.00;99.60;;;;;;5025000;28;20386;-77
2023/01/15 00:11:18;;;;;;;;;;;10.00;99.60;;;;;;5021134;28;19940;-78
2023/01/15 00:13:44;;;;;;;;;;;10.00;99.60;;;;;;5024350;28;19929;-79
2023/01/15 00:16:12;;;;;;;;;;;10.00;99.70;;;;;;5015944;28;20726;-79
2023/01/15 00:18:39;;;;;;;;;;;10.00;99.70;;;;;;5024449;28;19936;-79
2023/01/15 00:21:06;;;;;;;;;;;10.00;99.70;;;;;;5020966;28;19965;-80
2023/01/15 00:29:04;;;;;;;;;;;10.00;99.60;;;;;;5016805;28;19937;-79
2023/01/15 00:31:31;;;;;;;;;;;10.00;99.60;;;;;;5018372;28;19937;-78
2023/01/15 00:33:57;;;;;;;;;;;10.00;99.60;;;;;;5017444;28;19936;-78
2023/01/15 00:36:24;;;;;;;;;;;10.00;99.60;;;;;;5024122;28;19929;-77
2023/01/15 00:38:51;;;;;;;;;;;10.00;99.60;;;;;;5020841;28;19955;-77
2023/01/15 00:41:19;;;;;;;;;;;10.10;99.60;;;;;;5019153;28;19933;-78
2023/01/15 00:43:45;;;;;;;;;;;10.10;99.60;;;;;;5023288;28;19936;-79
2023/01/15 00:46:12;;;;;;;;;;;10.10;99.60;;;;;;5022325;28;19930;-78
2023/01/15 00:48:39;;;;;;;;;;;10.10;99.50;;;;;;5018760;28;20446;-79
2023/01/15 00:51:06;;;;;;;;;;;10.10;99.50;;;;;;5019160;28;19929;-77
2023/01/15 00:53:33;;;;;;;;;;;10.10;99.50;;;;;;5022000;28;20357;-77
2023/01/15 00:56:00;;;;;;;;;;;10.00;99.50;;;;;;5019473;28;19933;-77
2023/01/15 00:58:28;;;;;;;;;;;10.10;99.60;;;;;;5022298;28;19940;-78
2023/01/15 01:00:55;;;;;;;;;;;10.10;99.60;;;;;;5016251;28;20399;-77
2023/01/15 01:03:22;;;;;;;;;;;10.10;99.50;;;;;;5021417;28;19987;-78
2023/01/15 01:05:48;;;;;;;;;;;10.10;99.50;;;;;;5024231;28;19937;-77
2023/01/15 01:08:15;;;;;;;;;;;10.10;99.50;;;;;;5014679;28;19929;-78
2023/01/15 01:10:42;;;;;;;;;;;10.10;99.50;;;;;;5017136;28;19932;-81
2023/01/15 01:13:08;;;;;;;;;;;10.20;99.50;;;;;;5018692;28;20350;-78
2023/01/15 01:15:37;;;;;;;;;;;10.10;99.50;;;;;;5018711;28;20236;-78
2023/01/15 01:18:04;;;;;;;;;;;10.20;99.60;;;;;;5018779;28;20020;-77
2023/01/15 01:20:31;;;;;;;;;;;10.20;99.60;;;;;;5018440;28;20095;-80
2023/01/15 01:22:58;;;;;;;;;;;10.20;99.60;;;;;;5021757;28;19930;-78
2023/01/15 01:25:24;;;;;;;;;;;10.20;99.60;;;;;;5019040;28;19925;-77
2023/01/15 01:27:51;;;;;;;;;;;10.20;99.70;;;;;;5018696;28;19929;-80
2023/01/15 01:30:17;;;;;;;;;;;10.20;99.90;;;;;;5021690;28;19930;-78
2023/01/15 01:32:45;;;;;;;;;;;10.20;99.70;;;;;;5018864;28;20334;-80
2023/01/15 01:35:12;;;;;;;;;;;10.20;99.80;;;;;;5020511;28;19933;-78
2023/01/15 01:37:39;;;;;;;;;;;10.20;99.90;;;;;;5020857;28;19933;-79
2023/01/15 01:40:06;;;;;;;;;;;10.20;99.90;;;;;;5019666;28;19929;-79
2023/01/15 01:42:32;;;;;;;;;;;10.20;99.90;;;;;;5019861;28;19937;-78
2023/01/15 01:45:00;;;;;;;;;;;10.20;99.90;;;;;;5020540;28;20535;-77
2023/01/15 01:47:28;;;;;;;;;;;10.20;99.80;;;;;;5013682;28;20420;-77
2023/01/15 01:50:00;;;;;;;;;;;10.20;99.90;;;;;;5020919;28;19971;-78
2023/01/15 01:52:29;;;;;;;;;;;10.20;99.90;;;;;;5019198;28;20034;-78
2023/01/15 01:54:56;;;;;;;;;;;10.20;99.90;;;;;;5021729;28;19929;-81
2023/01/15 01:57:23;;;;;;;;;;;10.20;99.90;;;;;;5017590;28;19929;-78
2023/01/15 01:59:50;;;;;;;;;;;10.20;99.90;;;;;;5018838;28;19933;-78
2023/01/15 02:02:17;;;;;;;;;;;10.20;99.90;;;;;;5014492;28;19964;-78
2023/01/15 02:04:44;;;;;;;;;;;10.20;99.90;;;;;;5018200;28;19933;-78
2023/01/15 02:07:12;;;;;;;;;;;10.20;99.90;;;;;;5021281;28;19952;-77
2023/01/15 02:09:39;;;;;;;;;;;10.20;99.90;;;;;;5015849;28;20433;-78
2023/01/15 02:12:08;;;;;;;;;;;10.20;99.90;;;;;;5019310;28;19983;-78
2023/01/15 02:14:38;;;;;;;;;;;10.20;99.90;;;;;;5013213;28;19980;-77
2023/01/15 02:17:07;;;;;;;;;;;10.20;99.90;;;;;;5020232;28;19932;-77
2023/01/15 02:19:40;;;;;;;;;;;10.20;99.90;;;;;;5014936;28;19933;-79
2023/01/15 02:22:14;;;;;;;;;;;10.20;99.90;;;;;;5018001;28;19939;-80
2023/01/15 02:24:47;;;;;;;;;;;10.20;99.90;;;;;;5016116;28;19933;-77
2023/01/15 02:27:17;;;;;;;;;;;10.20;99.90;;;;;;5018493;28;19930;-77
2023/01/15 02:29:47;;;;;;;;;;;10.20;99.90;;;;;;5015576;28;19934;-77
2023/01/15 02:32:15;;;;;;;;;;;10.20;99.90;;;;;;5015294;28;20395;-79
2023/01/15 02:34:44;;;;;;;;;;;10.20;99.90;;;;;;5013394;28;19936;-77
2023/01/15 02:37:13;;;;;;;;;;;10.20;99.90;;;;;;5017682;28;20288;-79
2023/01/15 02:39:42;;;;;;;;;;;10.20;99.90;;;;;;5017182;28;19929;-79
2023/01/15 02:42:10;;;;;;;;;;;10.20;99.90;;;;;;5018814;28;19924;-81
2023/01/15 02:44:40;;;;;;;;;;;10.20;99.90;;;;;;5019710;28;20202;-78
2023/01/15 02:47:08;;;;;;;;;;;10.20;99.90;;;;;;5017726;28;20472;-82
2023/01/15 02:49:36;;;;;;;;;;;10.20;99.90;;;;;;5019906;28;19940;-81
2023/01/15 02:52:04;;;;;;;;;;;10.20;99.90;;;;;;5017433;28;20361;-77
2023/01/15 02:54:35;;;;;;;;;;;10.20;99.90;;;;;;5018549;28;19987;-80
2023/01/15 02:57:02;;;;;;;;;;;10.20;99.90;;;;;;5013607;28;20020;-78
2023/01/15 02:59:33;;;;;;;;;;;10.20;99.90;;;;;;5015798;28;19932;-78
2023/01/15 03:02:03;;;;;;;;;;;10.20;99.90;;;;;;5019648;28;19989;-79
2023/01/15 03:04:32;;;;;;;;;;;10.20;99.90;;;;;;5021688;28;19933;-78
2023/01/15 03:07:01;;;;;;;;;;;10.20;99.90;;;;;;5022904;28;19940;-78
2023/01/15 03:09:29;;;;;;;;;;;10.20;99.90;;;;;;5017525;28;19933;-79
2023/01/15 03:12:04;;;;;;;;;;;10.20;99.90;;;;;;5014575;28;19993;-79
2023/01/15 03:14:35;;;;;;;;;;;10.20;99.90;;;;;;5017301;28;19983;-79
2023/01/15 03:17:08;;;;;;;;;;;10.20;99.90;;;;;;5016476;28;20009;-77
2023/01/15 03:19:38;;;;;;;;;;;10.20;99.90;;;;;;5019790;28;20402;-79
2023/01/15 03:22:07;;;;;;;;;;;10.20;99.90;;;;;;5021813;28;19932;-82
2023/01/15 03:24:36;;;;;;;;;;;10.20;99.90;;;;;;5018942;28;19938;-79
2023/01/15 03:27:03;;;;;;;;;;;10.20;99.90;;;;;;5022227;28;19972;-78
2023/01/15 03:29:31;;;;;;;;;;;10.20;99.90;;;;;;5021954;28;19941;-76
2023/01/15 03:31:58;;;;;;;;;;;10.20;99.90;;;;;;5020020;28;19929;-79
2023/01/15 03:34:30;;;;;;;;;;;10.20;99.90;;;;;;5019676;28;20264;-78
2023/01/15 03:36:57;;;;;;;;;;;10.20;99.90;;;;;;5019283;28;19928;-78
2023/01/15 03:39:24;;;;;;;;;;;10.20;99.90;;;;;;5021975;28;19933;-78
2023/01/15 03:41:55;;;;;;;;;;;10.20;99.90;;;;;;5020858;28;19933;-78
2023/01/15 03:44:26;;;;;;;;;;;10.20;99.90;;;;;;5018747;28;19929;-80
2023/01/15 03:47:02;;;;;;;;;;;10.20;99.90;;;;;;5015418;28;19929;-78
2023/01/15 03:49:34;;;;;;;;;;;10.20;99.90;;;;;;5020264;28;19933;-79
2023/01/15 03:52:02;;;;;;;;;;;10.20;99.90;;;;;;5022037;28;19964;-81
2023/01/15 03:54:33;;;;;;;;;;;10.20;99.90;;;;;;5018395;28;20016;-79
2023/01/15 03:57:03;;;;;;;;;;;10.30;99.90;;;;;;5022356;28;19932;-78
2023/01/15 03:59:32;;;;;;;;;;;10.20;99.90;;;;;;5020594;28;19929;-79
2023/01/15 04:02:00;;;;;;;;;;;10.20;99.90;;;;;;5021139;28;19929;-80
2023/01/15 04:04:27;;;;;;;;;;;10.20;99.90;;;;;;5021537;28;19937;-78
2023/01/15 04:06:56;;;;;;;;;;;10.20;99.90;;;;;;5020868;28;19929;-79
2023/01/15 04:09:23;;;;;;;;;;;10.20;99.90;;;;;;5020315;28;19963;-79
2023/01/15 04:11:50;;;;;;;;;;;10.20;99.90;;;;;;5020713;28;20426;-78
2023/01/15 04:14:16;;;;;;;;;;;10.20;99.90;;;;;;5022278;28;19955;-78
2023/01/15 04:16:43;;;;;;;;;;;10.10;99.90;;;;;;5015604;28;20007;-78
2023/01/15 04:19:09;;;;;;;;;;;10.10;99.90;;;;;;5022582;28;19940;-78
2023/01/15 04:21:36;;;;;;;;;;;10.10;99.90;;;;;;5024312;28;20399;-79
2023/01/15 04:24:04;;;;;;;;;;;10.10;99.90;;;;;;5018522;28;19925;-81
2023/01/15 04:26:30;;;;;;;;;;;10.10;99.90;;;;;;5020765;28;19937;-79
2023/01/15 04:28:57;;;;;;;;;;;10.10;99.90;;;;;;5018534;28;19941;-80
2023/01/15 04:31:24;;;;;;;;;;;10.00;99.90;;;;;;5017685;28;19929;-80
2023/01/15 04:33:50;;;;;;;;;;;10.00;99.90;;;;;;5021637;28;19968;-79
2023/01/15 04:36:17;;;;;;;;;;;10.00;99.90;;;;;;5016285;28;19933;-79
2023/01/15 04:38:43;;;;;;;;;;;10.00;99.90;;;;;;5015839;28;20407;-78
2023/01/15 04:44:07;;;;;;;;;;;10.00;99.90;;;;;;5021336;28;19940;-78
2023/01/15 04:46:35;;;;;;;;;;;10.00;99.90;;;;;;5020833;28;19933;-80
2023/01/15 04:49:01;;;;;;;;;;;10.00;99.90;;;;;;5019120;28;19933;-77
2023/01/15 04:51:28;;;;;;;;;;;9.90;99.90;;;;;;5023418;28;19933;-78
2023/01/15 04:53:54;;;;;;;;;;;9.90;99.90;;;;;;5020005;28;19937;-78
2023/01/15 04:56:22;;;;;;;;;;;9.90;99.90;;;;;;5011195;28;19930;-79
2023/01/15 04:58:49;;;;;;;;;;;9.80;99.90;;;;;;5021716;28;20023;-77
2023/01/15 05:01:16;;;;;;;;;;;9.90;99.90;;;;;;5016628;28;19930;-77
2023/01/15 05:03:43;;;;;;;;;;;9.90;99.90;;;;;;5024689;28;20387;-78
2023/01/15 05:06:10;;;;;;;;;;;9.90;99.90;;;;;;5023391;28;20319;-79
2023/01/15 05:08:36;;;;;;;;;;;9.80;99.90;;;;;;5014513;28;19975;-80
2023/01/15 05:11:03;;;;;;;;;;;9.80;99.90;;;;;;5017100;28;19929;-79
2023/01/15 05:13:32;;;;;;;;;;;9.80;99.90;;;;;;5018197;28;19937;-77
2023/01/15 05:16:06;;;;;;;;;;;9.80;99.90;;;;;;5020286;28;19936;-79
2023/01/15 05:18:33;;;;;;;;;;;9.70;99.90;;;;;;5019140;28;19984;-79
2023/01/15 05:21:00;;;;;;;;;;;9.70;99.90;;;;;;5018020;28;19929;-77
2023/01/15 05:23:26;;;;;;;;;;;9.70;99.90;;;;;;5017583;28;19937;-77
2023/01/15 05:25:53;;;;;;;;;;;9.70;99.90;;;;;;5019225;28;19929;-78
2023/01/15 05:28:19;;;;;;;;;;;9.70;99.90;;;;;;5017794;28;19936;-79
2023/01/15 05:30:47;;;;;;;;;;;9.70;99.90;;;;;;5021017;28;19933;-78
2023/01/15 05:33:13;;;;;;;;;;;9.70;99.90;;;;;;5016291;28;19929;-79
2023/01/15 05:35:40;;;;;;;;;;;9.60;99.90;;;;;;5018535;28;19929;-80
2023/01/15 05:38:06;;;;;;;;;;;9.60;99.90;;;;;;5020786;28;19983;-78
2023/01/15 05:40:33;;;;;;;;;;;9.60;99.90;;;;;;5016153;28;19933;-79
2023/01/15 05:43:00;;;;;;;;;;;9.60;99.90;;;;;;5017589;28;20409;-78
2023/01/15 05:45:26;;;;;;;;;;;9.60;99.90;;;;;;5017193;28;19941;-81
2023/01/15 05:47:54;;;;;;;;;;;9.60;99.90;;;;;;5020223;28;19994;-78
2023/01/15 05:50:20;;;;;;;;;;;9.50;99.90;;;;;;5015035;28;19940;-81
2023/01/15 05:52:47;;;;;;;;;;;9.50;99.90;;;;;;5017567;28;19936;-78
2023/01/15 05:55:13;;;;;;;;;;;9.50;99.90;;;;;;5018913;28;19933;-79
2023/01/15 05:57:40;;;;;;;;;;;9.50;99.90;;;;;;5013074;28;19960;-77
2023/01/15 06:00:07;;;;;;;;;;;9.50;99.90;;;;;;5015518;28;20418;-80
2023/01/15 06:02:34;;;;;;;;;;;9.50;99.90;;;;;;5014406;28;19941;-81
2023/01/15 06:05:02;;;;;;;;;;;9.40;99.90;;;;;;5017084;28;19951;-78
2023/01/15 06:07:29;;;;;;;;;;;9.40;99.90;;;;;;5017396;28;19983;-77
2023/01/15 06:09:55;;;;;;;;;;;9.40;99.90;;;;;;5017799;28;19991;-78
2023/01/15 06:12:22;;;;;;;;;;;9.40;99.90;;;;;;5014688;28;21566;-79
2023/01/15 06:14:48;;;;;;;;;;;9.40;99.90;;;;;;5014469;28;19929;-78
2023/01/15 06:17:15;;;;;;;;;;;9.40;99.90;;;;;;5019102;28;19929;-78
2023/01/15 06:19:41;;;;;;;;;;;9.30;99.90;;;;;;5011706;28;20463;-78
2023/01/15 06:22:09;;;;;;;;;;;9.30;99.90;;;;;;5014363;28;19936;-78
2023/01/15 06:24:36;;;;;;;;;;;9.30;99.90;;;;;;5015892;28;19980;-80
2023/01/15 06:27:02;;;;;;;;;;;9.30;99.80;;;;;;5016985;28;19929;-78
2023/01/15 06:29:29;;;;;;;;;;;9.30;99.80;;;;;;5017258;28;21159;-77
2023/01/15 06:31:55;;;;;;;;;;;9.30;99.80;;;;;;5015484;28;19929;-79
2023/01/15 06:34:22;;;;;;;;;;;9.20;99.70;;;;;;5015255;28;19929;-77
2023/01/15 06:36:48;;;;;;;;;;;9.20;99.70;;;;;;5018673;28;20310;-78
2023/01/15 06:39:16;;;;;;;;;;;9.20;99.60;;;;;;5017797;28;19937;-78
2023/01/15 06:47:23;;;;;;;;;;;9.10;99.40;;;;;;5016595;28;19978;-78
2023/01/15 06:49:50;;;;;;;;;;;9.10;99.30;;;;;;5019500;28;20717;-77
2023/01/15 06:52:16;;;;;;;;;;;9.00;99.30;;;;;;5022513;28;20321;-79
2023/01/15 06:54:44;;;;;;;;;;;9.00;99.30;;;;;;5014456;28;20444;-79
2023/01/15 06:57:11;;;;;;;;;;;9.10;99.30;;;;;;5020679;28;20688;-77
2023/01/15 06:59:37;;;;;;;;;;;9.00;99.30;;;;;;5016752;28;19928;-77
2023/01/15 07:02:04;;;;;;;;;;;9.00;99.20;;;;;;5019787;28;19929;-78
2023/01/15 07:04:31;;;;;;;;;;;8.90;99.20;;;;;;5013210;28;19933;-79
2023/01/15 07:06:57;;;;;;;;;;;8.90;99.10;;;;;;5014507;28;19949;-78
2023/01/15 07:09:24;;;;;;;;;;;8.90;99.10;;;;;;5012383;28;19987;-79
2023/01/15 07:11:52;;;;;;;;;;;8.90;99.10;;;;;;5017087;28;19933;-79
2023/01/15 07:14:19;;;;;;;;;;;8.90;99.10;;;;;;5017045;28;19936;-79
2023/01/15 07:16:46;;;;;;;;;;;8.90;99.10;;;;;;5014772;28;19930;-78
2023/01/15 07:19:12;;;;;;;;;;;8.90;99.10;;;;;;5019634;28;19929;-80
2023/01/15 07:21:39;;;;;;;;;;;8.90;99.20;;;;;;5019146;28;20328;-78
2023/01/15 07:24:06;;;;;;;;;;;8.80;99.20;;;;;;5021311;28;19944;-78
2023/01/15 07:26:32;;;;;;;;;;;8.80;99.20;;;;;;5012794;28;19934;-79
2023/01/15 07:29:00;;;;;;;;;;;8.80;99.20;;;;;;5012129;28;20422;-78
2023/01/15 07:31:27;;;;;;;;;;;8.80;99.20;;;;;;5013079;28;19933;-78
2023/01/15 07:33:55;;;;;;;;;;;8.70;99.10;;;;;;5019889;28;19941;-78
2023/01/15 07:36:21;;;;;;;;;;;8.80;99.00;;;;;;5015970;28;19995;-78
2023/01/15 07:38:48;;;;;;;;;;;8.70;99.00;;;;;;5016874;28;19933;-78
2023/01/15 07:49:47;;;;;;;;;;;8.60;99.10;;;;;;5009403;28;20051;-79
2023/01/15 07:52:14;;;;;;;;;;;8.60;99.10;;;;;;5014285;28;19929;-78
2023/01/15 07:54:40;;;;;;;;;;;8.60;99.10;;;;;;5009907;28;19952;-79
2023/01/15 07:57:07;;;;;;;;;;;8.60;99.10;;;;;;5008618;28;19929;-81
2023/01/15 07:59:34;;;;;;;;;;;8.60;99.10;;;;;;5006482;28;20667;-79
2023/01/15 08:02:02;;;;;;;;;;;8.50;99.10;;;;;;5007224;28;19933;-81
2023/01/15 08:04:28;;;;;;;;;;;8.50;99.10;;;;;;5008568;28;19929;-79
2023/01/15 08:06:55;;;;;;;;;;;8.50;99.10;;;;;;5017376;28;19929;-79
2023/01/15 08:09:21;;;;;;;;;;;8.50;99.10;;;;;;5015484;28;20624;-78
2023/01/15 08:17:18;;;;;;;;;;;8.50;99.20;;;;;;5012787;28;19987;-78
2023/01/15 08:19:44;;;;;;;;;;;8.40;99.10;;;;;;5019608;28;19956;-81
2023/01/15 08:22:11;;;;;;;;;;;8.40;99.10;;;;;;5019486;28;20406;-77
2023/01/15 08:24:37;;;;;;;;;;;8.40;99.20;;;;;;5009941;28;21820;-78
2023/01/15 08:27:04;;;;;;;;;;;8.40;99.20;;;;;;5012408;28;19929;-78
2023/01/15 08:29:31;;;;;;;;;;;8.40;99.10;;;;;;5009206;28;20415;-78
2023/01/15 08:31:57;;;;;;;;;;;8.30;99.20;;;;;;5007693;28;19929;-80
2023/01/15 08:34:25;;;;;;;;;;;8.30;99.20;;;;;;5010767;28;19933;-81
2023/01/15 08:36:58;;;;;;;;;;;8.30;99.30;;;;;;5012550;28;19933;-81
2023/01/15 08:39:25;;;;;;;;;;;8.30;99.30;;;;;;5009732;28;19933;-77
2023/01/15 08:41:51;;;;;;;;;;;8.30;99.30;;;;;;5017668;28;19933;-79
2023/01/15 08:44:20;;;;;;;;;;;8.30;99.30;;;;;;5017296;28;20501;-78
2023/01/15 08:46:47;;;;;;;;;;;8.20;99.20;;;;;;5014795;28;19957;-83
2023/01/15 08:49:13;;;;;;;;;;;8.20;99.20;;;;;;5010947;28;19941;-80
2023/01/15 08:51:41;;;;;;;;;;;8.20;99.10;;;;;;5009752;28;19933;-84
2023/01/15 08:54:08;;;;;;;;;;;8.20;99.10;;;;;;5007946;28;20624;-79
2023/01/15 08:56:34;;;;;;;;;;;8.10;99.10;;;;;;5010649;28;20476;-78
2023/01/15 08:59:03;;;;;;;;;;;8.10;99.40;;;;;;5006349;28;19941;-77
2023/01/15 09:01:30;;;;;;;;;;;8.10;99.00;;;;;;5007723;28;19933;-77
2023/01/15 09:03:57;;;;;;;;;;;8.10;99.00;;;;;;5012025;28;19940;-76
2023/01/15 09:06:23;;;;;;;;;;;8.10;98.90;;;;;;5009707;28;19935;-77
2023/01/15 09:08:51;;;;;;;;;;;8.10;99.30;;;;;;5008159;28;19940;-77
2023/01/15 09:11:18;;;;;;;;;;;8.00;98.90;;;;;;5008615;28;19995;-76
2023/01/15 09:13:45;;;;;;;;;;;8.00;99.00;;;;;;5007471;28;19933;-76
2023/01/15 09:16:12;;;;;;;;;;;8.10;99.00;;;;;;5007419;28;20057;-76
2023/01/15 09:18:38;;;;;;;;;;;8.00;99.00;;;;;;5014478;28;19928;-77
2023/01/15 09:21:05;;;;;;;;;;;8.00;99.00;;;;;;5013084;28;19929;-76
2023/01/15 09:23:32;;;;;;;;;;;8.00;98.90;;;;;;5014636;28;19940;-78
2023/01/15 09:26:00;;;;;;;;;;;8.00;98.90;;;;;;5008806;28;19929;-79
2023/01/15 09:28:27;;;;;;;;;;;8.00;98.90;;;;;;5011147;28;19933;-76
2023/01/15 09:30:54;;;;;;;;;;;8.00;98.90;;;;;;5015243;28;20308;-79
2023/01/15 09:33:21;;;;;;;;;;;7.90;98.80;;;;;;5016572;28;19929;-76
2023/01/15 09:35:47;;;;;;;;;;;7.90;98.90;;;;;;5014997;28;19960;-77
2023/01/15 09:38:14;;;;;;;;;;;7.90;98.90;;;;;;5014614;28;19940;-78
2023/01/15 09:40:46;;;;;;;;;;;7.90;98.80;;;;;;5018343;28;19933;-76
2023/01/15 09:43:22;;;;;;;;;;;7.90;98.80;;;;;;5017173;28;19933;-77
2023/01/15 09:45:50;;;;;;;;;;;7.90;98.80;;;;;;5017680;28;20395;-78
2023/01/15 09:48:24;;;;;;;;;;;7.80;98.80;;;;;;5016059;28;20028;-78
2023/01/15 09:50:56;;;;;;;;;;;7.80;98.80;;;;;;5016199;28;19933;-79
2023/01/15 09:53:32;;;;;;;;;;;7.80;98.80;;;;;;5012109;28;20040;-76
2023/01/15 09:56:00;;;;;;;;;;;7.80;98.80;;;;;;5011753;28;19933;-76
2023/01/15 09:58:32;;;;;;;;;;;7.80;98.80;;;;;;5010374;28;20031;-79
2023/01/15 10:00:59;;;;;;;;;;;7.70;98.70;;;;;;5009015;28;20299;-78
2023/01/15 10:03:29;;;;;;;;;;;7.70;98.60;;;;;;5008235;28;19937;-77
2023/01/15 10:05:58;;;;;;;;;;;7.70;98.60;;;;;;5005177;28;19929;-77
2023/01/15 10:08:27;;;;;;;;;;;7.70;98.60;;;;;;5010224;28;20511;-77
2023/01/15 10:10:55;;;;;;;;;;;7.70;98.60;;;;;;5004311;28;19933;-80
2023/01/15 10:13:27;;;;;;;;;;;7.70;98.70;;;;;;5004840;28;19941;-78
2023/01/15 10:15:55;;;;;;;;;;;7.60;98.60;;;;;;5006790;28;19933;-76
2023/01/15 10:18:23;;;;;;;;;;;7.60;98.60;;;;;;5010183;28;20683;-78
2023/01/15 10:20:55;;;;;;;;;;;7.60;98.70;;;;;;5012555;28;19933;-77
2023/01/15 10:23:32;;;;;;;;;;;7.60;98.70;;;;;;5009941;28;19933;-77
2023/01/15 10:26:02;;;;;;;;;;;7.60;98.80;;;;;;5012750;28;19933;-79
2023/01/15 10:28:29;;;;;;;;;;;7.60;98.70;;;;;;5014402;28;20403;-75
2023/01/15 10:31:02;;;;;;;;;;;7.60;98.70;;;;;;5009234;28;20056;-77
2023/01/15 10:33:36;;;;;;;;;;;7.60;98.70;;;;;;5009426;28;19929;-77
2023/01/15 10:36:07;;;;;;;;;;;7.60;98.70;;;;;;5011368;28;19936;-77
2023/01/15 10:38:37;;;;;;;;;;;7.50;98.70;;;;;;5012356;28;19933;-79
2023/01/15 10:41:09;;;;;;;;;;;7.50;98.70;;;;;;5003601;28;19929;-78
2023/01/15 10:43:41;;;;;;;;;;;7.50;98.70;;;;;;5008742;28;19940;-76
2023/01/15 10:46:11;;;;;;;;;;;7.50;98.80;;;;;;5012923;28;20450;-78
2023/01/15 10:48:39;;;;;;;;;;;7.50;98.80;;;;;;5010639;28;19940;-78
2023/01/15 10:51:12;;;;;;;;;;;7.50;98.80;;;;;;5014771;28;19940;-78
2023/01/15 10:53:42;;;;;;;;;;;7.40;98.80;;;;;;5013793;28;19945;-75
2023/01/15 10:56:11;;;;;;;;;;;7.40;98.70;;;;;;5015686;28;19940;-77
2023/01/15 10:58:39;;;;;;;;;;;7.40;98.70;;;;;;5013251;28;19929;-77
2023/01/15 11:01:09;;;;;;;;;;;7.40;98.70;;;;;;5009487;28;19933;-78
2023/01/15 11:03:38;;;;;;;;;;;7.40;98.60;;;;;;5005467;28;19939;-77
2023/01/15 11:06:07;;;;;;;;;;;7.40;98.50;;;;;;5005373;28;19933;-77
2023/01/15 11:08:34;;;;;;;;;;;7.40;98.40;;;;;;5004999;28;19934;-77
2023/01/15 11:11:07;;;;;;;;;;;7.30;98.70;;;;;;5009254;28;19948;-75
2023/01/15 11:21:51;;;;;;;;;;;7.20;98.40;;;;;;5005682;28;20747;-77
2023/01/15 11:24:18;;;;;;;;;;;7.20;97.90;;;;;;5005761;28;19933;-77
2023/01/15 11:26:46;;;;;;;;;;;7.20;97.80;;;;;;5006774;28;19939;-76
2023/01/15 11:29:14;;;;;;;;;;;7.20;97.70;;;;;;5004410;28;19933;-77
2023/01/15 11:31:41;;;;;;;;;;;7.20;97.70;;;;;;5007859;28;19933;-76
2023/01/15 11:34:18;;;;;;;;;;;7.10;97.60;;;;;;5012884;28;19929;-77
2023/01/15 11:36:44;;;;;;;;;;;7.20;97.60;;;;;;5016165;28;19999;-77
2023/01/15 11:39:21;;;;;;;;;;;7.10;97.40;;;;;;5014991;28;19933;-76
2023/01/15 11:53:00;;;;;;;;;;;7.00;96.90;;;;;;5013809;28;19944;-78
2023/01/15 11:55:27;;;;;;;;;;;7.00;96.90;;;;;;5018412;28;19941;-77
2023/01/15 11:57:54;;;;;;;;;;;7.00;97.00;;;;;;5014164;28;19995;-76
2023/01/15 12:00:22;;;;;;;;;;;7.00;96.90;;;;;;5012258;28;19936;-75
2023/01/15 12:02:49;;;;;;;;;;;7.00;96.90;;;;;;5018059;28;19940;-77
2023/01/15 12:05:18;;;;;;;;;;;7.00;96.90;;;;;;5020079;28;20394;-77
2023/01/15 12:07:45;;;;;;;;;;;6.90;96.80;;;;;;5013453;28;20040;-75
2023/01/15 12:10:20;;;;;;;;;;;7.00;96.80;;;;;;5018299;28;20335;-76
2023/01/15 12:12:54;;;;;;;;;;;6.90;96.80;;;;;;5015272;28;19941;-77
2023/01/15 12:15:26;;;;;;;;;;;6.90;96.80;;;;;;5016060;28;19948;-76
2023/01/15 12:18:06;;;;;;;;;;;6.90;96.90;;;;;;5011371;28;19933;-76
2023/01/15 12:20:38;;;;;;;;;;;6.90;96.90;;;;;;5011081;28;19933;-76
2023/01/15 12:23:11;;;;;;;;;;;7.00;96.90;;;;;;5011456;28;19932;-76
2023/01/15 12:25:41;;;;;;;;;;;6.90;96.90;;;;;;5013532;28;19976;-76
2023/01/15 12:28:11;;;;;;;;;;;6.90;96.90;;;;;;5012953;28;19940;-76
2023/01/15 12:30:41;;;;;;;;;;;6.90;96.80;;;;;;5017605;28;19936;-76
2023/01/15 12:33:20;;;;;;;;;;;6.90;96.80;;;;;;5014094;28;19929;-76
2023/01/15 12:35:55;;;;;;;;;;;6.90;96.70;;;;;;5015939;28;19933;-77
2023/01/15 12:38:24;;;;;;;;;;;6.90;96.70;;;;;;5019487;28;19932;-78
2023/01/15 12:40:52;;;;;;;;;;;6.90;96.50;;;;;;5015566;28;20437;-75
2023/01/15 12:46:09;;;;;;;;;;;6.90;96.30;;;;;;5014854;28;19984;-76
2023/01/15 12:48:41;;;;;;;;;;;6.90;96.20;;;;;;5009338;28;19933;-76
2023/01/15 12:51:13;;;;;;;;;;;6.90;96.00;;;;;;5013975;28;20027;-76
2023/01/15 12:53:43;;;;;;;;;;;7.00;95.90;;;;;;5009941;28;19948;-78
2023/01/15 12:56:14;;;;;;;;;;;7.10;95.60;;;;;;5004177;28;19991;-76
2023/01/15 12:58:44;;;;;;;;;;;7.10;95.40;;;;;;5011297;28;19929;-77
2023/01/15 13:01:13;;;;;;;;;;;7.20;95.20;;;;;;5007767;28;19929;-79
2023/01/15 13:03:47;;;;;;;;;;;7.20;95.10;;;;;;5004449;28;19936;-78
2023/01/15 13:06:17;;;;;;;;;;;7.20;94.90;;;;;;5013326;28;19933;-81
2023/01/15 13:08:49;;;;;;;;;;;7.30;94.70;;;;;;5016423;28;19940;-81
2023/01/15 13:11:15;;;;;;;;;;;7.30;94.50;;;;;;5013267;28;19952;-80
2023/01/15 13:13:42;;;;;;;;;;;7.40;94.00;;;;;;5014663;28;19992;-79
2023/01/15 13:16:26;;;;;;;;;;;7.40;93.60;;;;;;5022610;28;19951;-78
2023/01/15 13:19:01;;;;;;;;;;;7.40;93.30;;;;;;5017770;28;19929;-77
2023/01/15 13:21:31;;;;;;;;;;;7.40;93.20;;;;;;5024667;28;19954;-80
2023/01/15 13:24:07;;;;;;;;;;;7.50;93.10;;;;;;5020025;28;19936;-80
2023/01/15 13:26:53;;;;;;;;;;;7.50;92.60;;;;;;5017258;28;20520;-79
2023/01/15 13:29:22;;;;;;;;;;;7.50;92.40;;;;;;5019094;28;19929;-79
2023/01/15 13:31:55;;;;;;;;;;;7.50;92.20;;;;;;5015098;28;19952;-77
2023/01/15 13:34:24;;;;;;;;;;;7.40;92.30;;;;;;5020258;28;19936;-78
2023/01/15 13:36:53;;;;;;;;;;;7.40;92.30;;;;;;5022106;28;19932;-78
2023/01/15 13:39:21;;;;;;;;;;;7.40;92.30;;;;;;5025936;28;19994;-79
2023/01/15 13:44:36;;;;;;;;;;;7.40;92.30;;;;;;5013957;28;19932;-80
2023/01/15 13:47:05;;;;;;;;;;;7.50;92.20;;;;;;5017417;28;20354;-79
2023/01/15 13:49:34;;;;;;;;;;;7.50;92.20;;;;;;5017175;28;19936;-76
2023/01/15 13:52:03;;;;;;;;;;;7.60;92.10;;;;;;5018169;28;19929;-78
2023/01/15 13:54:31;;;;;;;;;;;7.60;91.90;;;;;;5015446;28;20020;-78
2023/01/15 13:57:06;;;;;;;;;;;7.70;91.80;;;;;;5012410;28;19936;-78
2023/01/15 13:59:41;;;;;;;;;;;7.70;91.80;;;;;;5019129;28;19929;-76
2023/01/15 14:02:20;;;;;;;;;;;7.70;91.80;;;;;;5012770;28;19956;-79
2023/01/15 14:04:47;;;;;;;;;;;7.70;91.80;;;;;;5019630;28;19933;-77
2023/01/15 14:07:19;;;;;;;;;;;7.70;91.70;;;;;;5013324;28;19929;-77
2023/01/15 14:09:45;;;;;;;;;;;7.80;91.60;;;;;;5014507;28;19933;-77
2023/01/15 14:12:18;;;;;;;;;;;7.80;91.40;;;;;;5015927;28;19937;-77
2023/01/15 14:14:49;;;;;;;;;;;7.80;91.20;;;;;;5014647;28;19986;-78
2023/01/15 14:17:36;;;;;;;;;;;7.70;91.00;;;;;;5014244;28;20001;-77
2023/01/15 14:20:13;;;;;;;;;;;7.70;91.00;;;;;;5017560;28;19936;-78
2023/01/15 14:22:50;;;;;;;;;;;7.70;91.00;;;;;;5014602;28;20415;-76
2023/01/15 14:25:21;;;;;;;;;;;7.60;91.00;;;;;;5009075;28;19930;-77
2023/01/15 14:28:00;;;;;;;;;;;7.60;91.20;;;;;;5018350;28;20306;-76
2023/01/15 14:30:35;;;;;;;;;;;7.60;91.30;;;;;;5016318;28;19960;-78
2023/01/15 14:33:07;;;;;;;;;;;7.50;91.50;;;;;;5014334;28;19955;-78
2023/01/15 14:35:35;;;;;;;;;;;7.50;91.60;;;;;;5015951;28;20592;-77
2023/01/15 14:38:05;;;;;;;;;;;7.40;91.80;;;;;;5018066;28;19929;-79
2023/01/15 14:40:34;;;;;;;;;;;7.40;92.00;;;;;;5016703;28;20357;-77
2023/01/15 14:43:00;;;;;;;;;;;7.30;92.30;;;;;;5018078;28;20741;-78
2023/01/15 14:45:28;;;;;;;;;;;7.30;92.50;;;;;;5019003;28;19932;-77
2023/01/15 14:47:55;;;;;;;;;;;7.30;92.70;;;;;;5014835;28;19933;-76
2023/01/15 14:50:32;;;;;;;;;;;7.20;92.90;;;;;;5017780;28;20738;-76
2023/01/15 14:53:01;;;;;;;;;;;7.20;93.10;;;;;;5018766;28;20015;-77
2023/01/15 14:55:29;;;;;;;;;;;7.20;93.20;;;;;;5015178;28;19929;-77
2023/01/15 14:57:58;;;;;;;;;;;7.10;93.40;;;;;;5017041;28;19987;-77
2023/01/15 15:00:27;;;;;;;;;;;7.10;93.40;;;;;;5017886;28;19995;-77
2023/01/15 15:02:55;;;;;;;;;;;7.10;93.60;;;;;;5008628;28;19933;-77
2023/01/15 15:05:23;;;;;;;;;;;7.10;93.60;;;;;;5014309;28;19937;-77
2023/01/15 15:07:51;;;;;;;;;;;7.00;93.60;;;;;;5013556;28;19929;-77
2023/01/15 15:10:21;;;;;;;;;;;7.00;93.60;;;;;;5013546;28;20031;-77
2023/01/15 15:12:53;;;;;;;;;;;7.00;93.60;;;;;;5016218;28;19937;-77
2023/01/15 15:15:21;;;;;;;;;;;6.90;93.60;;;;;;5015754;28;19929;-78
2023/01/15 15:17:56;;;;;;;;;;;6.90;93.60;;;;;;5018036;28;20020;-77
2023/01/15 15:20:28;;;;;;;;;;;6.90;93.60;;;;;;5018038;28;19936;-76
2023/01/15 15:22:56;;;;;;;;;;;6.90;93.60;;;;;;5017937;28;19936;-76
2023/01/15 15:25:23;;;;;;;;;;;6.90;93.70;;;;;;5014820;28;20311;-77
2023/01/15 15:28:02;;;;;;;;;;;6.80;93.70;;;;;;5014367;28;19975;-77